createdAt,value
2022-09-01T00:00:21.164Z,2.70
2022-09-01T00:02:50.818Z,3.50
2022-09-01T00:05:19.184Z,3.60
2022-09-01T00:07:47.632Z,3.30
2022-09-01T00:10:15.511Z,3.53
2022-09-01T00:12:43.560Z,3.65
2022-09-01T00:15:13.228Z,3.25
2022-09-01T00:17:41.281Z,3.15
2022-09-01T00:20:10.823Z,3.43
2022-09-01T00:22:40.475Z,2.92
2022-09-01T00:25:09.302Z,2.85
2022-09-01T00:27:37.612Z,2.50
2022-09-01T00:30:07.890Z,2.38
2022-09-01T00:32:35.914Z,2.58
2022-09-01T00:35:05.574Z,2.42
2022-09-01T00:37:33.555Z,2.03
2022-09-01T00:40:01.124Z,2.13
2022-09-01T00:42:28.720Z,2.00
2022-09-01T00:44:56.273Z,2.22
2022-09-01T00:47:24.765Z,2.20
2022-09-01T00:49:54.307Z,2.67
2022-09-01T00:52:32.916Z,2.13
2022-09-01T00:55:08.331Z,1.88
2022-09-01T00:57:36.283Z,1.88
2022-09-01T01:00:11.696Z,2.25
2022-09-01T01:02:41.404Z,2.55
2022-09-01T01:05:14.212Z,2.10
2022-09-01T01:07:47.710Z,2.22
2022-09-01T01:10:18.996Z,2.53
2022-09-01T01:12:48.686Z,2.00
2022-09-01T01:15:17.329Z,2.30
2022-09-01T01:17:45.483Z,2.30
2022-09-01T01:20:34.192Z,2.40
2022-09-01T01:23:12.558Z,2.28
2022-09-01T01:25:41.948Z,2.30
2022-09-01T01:28:32.171Z,2.53
2022-09-01T01:31:12.651Z,2.45
2022-09-01T01:33:44.653Z,2.60
2022-09-01T01:36:32.207Z,2.65
2022-09-01T01:39:09.028Z,2.30
2022-09-01T01:41:42.265Z,2.20
2022-09-01T01:44:13.871Z,2.17
2022-09-01T01:46:44.600Z,2.17
2022-09-01T01:49:18.951Z,2.65
2022-09-01T01:51:50.454Z,2.13
2022-09-01T01:54:20.115Z,2.90
2022-09-01T01:56:49.862Z,2.60
2022-09-01T01:59:19.357Z,2.57
2022-09-01T02:01:49.415Z,2.38
2022-09-01T02:04:19.913Z,2.25
2022-09-01T02:06:49.398Z,1.92
2022-09-01T02:09:23.268Z,2.63
2022-09-01T02:11:55.508Z,2.33
2022-09-01T02:14:23.687Z,2.10
2022-09-01T02:16:53.476Z,2.40
2022-09-01T02:19:22.485Z,2.30
2022-09-01T02:21:54.416Z,2.50
2022-09-01T02:24:24.170Z,2.22
2022-09-01T02:26:52.161Z,2.60
2022-09-01T02:29:22.518Z,2.22
2022-09-01T02:31:52.939Z,2.70
2022-09-01T02:34:24.267Z,2.53
2022-09-01T02:36:57.005Z,2.45
2022-09-01T02:39:32.778Z,2.60
2022-09-01T02:42:01.353Z,2.50
2022-09-01T02:44:31.107Z,2.13
2022-09-01T02:47:00.986Z,2.60
2022-09-01T02:49:30.012Z,2.25
2022-09-01T02:52:01.711Z,2.23
2022-09-01T02:54:32.600Z,2.00
2022-09-01T02:57:01.213Z,2.22
2022-09-01T02:59:30.547Z,2.20
2022-09-01T03:02:01.399Z,2.40
2022-09-01T03:04:35.459Z,2.58
2022-09-01T03:07:05.599Z,2.22
2022-09-01T03:09:33.880Z,2.38
2022-09-01T03:12:02.147Z,2.05
2022-09-01T03:14:30.101Z,1.85
2022-09-01T03:16:57.774Z,2.47
2022-09-01T03:19:25.425Z,2.47
2022-09-01T03:21:53.038Z,2.20
2022-09-01T03:24:24.281Z,2.10
2022-09-01T03:26:52.675Z,2.42
2022-09-01T03:29:21.111Z,3.00
2022-09-01T03:31:49.431Z,2.40
2022-09-01T03:34:23.683Z,2.60
2022-09-01T03:36:54.479Z,2.30
2022-09-01T03:39:27.892Z,2.80
2022-09-01T03:41:58.166Z,2.53
2022-09-01T03:44:26.210Z,2.30
2022-09-01T03:46:53.833Z,2.65
2022-09-01T03:49:27.888Z,3.25
2022-09-01T03:51:57.580Z,2.47
2022-09-01T03:54:30.445Z,2.53
2022-09-01T03:57:00.141Z,2.72
2022-09-01T03:59:29.917Z,2.30
2022-09-01T04:02:00.262Z,2.90
2022-09-01T04:04:28.045Z,2.63
2022-09-01T04:06:55.646Z,2.80
2022-09-01T04:09:23.143Z,2.33
2022-09-01T04:11:53.148Z,2.63
2022-09-01T04:14:21.671Z,2.85
2022-09-01T04:17:08.873Z,2.55
2022-09-01T04:19:39.324Z,2.97
2022-09-01T04:22:14.355Z,3.20
2022-09-01T04:24:46.323Z,3.10
2022-09-01T04:27:18.150Z,2.50
2022-09-01T04:29:46.987Z,2.03
2022-09-01T04:32:15.861Z,1.90
2022-09-01T04:34:49.720Z,19.35
2022-09-01T04:37:21.207Z,3.58
2022-09-01T04:39:56.924Z,2.35
2022-09-01T04:42:29.166Z,2.47
2022-09-01T04:45:00.107Z,2.80
2022-09-01T04:47:35.621Z,2.40
2022-09-01T04:50:14.297Z,2.10
2022-09-01T04:52:45.643Z,2.40
2022-09-01T04:55:28.837Z,2.25
2022-09-01T04:57:59.956Z,2.33
2022-09-01T05:00:32.376Z,2.10
2022-09-01T05:03:05.056Z,2.33
2022-09-01T05:05:51.302Z,2.60
2022-09-01T05:08:24.609Z,2.63
2022-09-01T05:10:56.848Z,2.88
2022-09-01T05:13:57.731Z,2.38
2022-09-01T05:16:27.312Z,2.70
2022-09-01T05:18:58.050Z,2.50
2022-09-01T05:21:30.789Z,2.58
2022-09-01T05:24:01.570Z,2.33
2022-09-01T05:26:33.782Z,2.08
2022-09-01T05:29:04.242Z,2.53
2022-09-01T05:31:38.016Z,2.33
2022-09-01T05:34:09.656Z,2.20
2022-09-01T05:36:43.417Z,2.50
2022-09-01T05:39:12.324Z,2.15
2022-09-01T05:41:41.066Z,2.40
2022-09-01T05:44:09.834Z,2.42
2022-09-01T05:46:40.032Z,2.00
2022-09-01T05:49:16.244Z,2.42
2022-09-01T05:51:50.813Z,2.67
2022-09-01T05:54:25.615Z,2.47
2022-09-01T05:57:00.153Z,2.88
2022-09-01T05:59:36.387Z,2.35
2022-09-01T06:02:12.572Z,3.00
2022-09-01T06:04:41.422Z,2.65
2022-09-01T06:07:16.480Z,1.98
2022-09-01T06:09:53.836Z,2.70
2022-09-01T06:12:24.902Z,2.92
2022-09-01T06:14:55.323Z,3.47
2022-09-01T06:17:25.791Z,2.38
2022-09-01T06:19:57.087Z,3.13
2022-09-01T06:22:28.235Z,4.82
2022-09-01T06:25:02.355Z,2.50
2022-09-01T06:27:34.100Z,4.50
2022-09-01T06:30:04.699Z,3.28
2022-09-01T06:32:38.664Z,6.17
2022-09-01T06:35:09.309Z,2.90
2022-09-01T06:37:39.533Z,3.13
2022-09-01T06:40:17.286Z,2.95
2022-09-01T06:42:51.083Z,2.50
2022-09-01T06:45:22.197Z,5.63
2022-09-01T06:47:59.895Z,3.20
2022-09-01T06:53:35.209Z,2.80
2022-09-01T06:56:05.941Z,2.50
2022-09-01T06:58:35.041Z,2.72
2022-09-01T07:01:08.355Z,2.83
2022-09-01T07:03:37.253Z,3.85
2022-09-01T07:09:38.656Z,2.42
2022-09-01T07:18:01.111Z,2.38
2022-09-01T07:21:02.857Z,1.95
2022-09-01T07:23:28.934Z,2.55
2022-09-01T07:26:24.643Z,2.05
2022-09-01T07:29:07.865Z,5.17
2022-09-01T07:32:43.441Z,3.58
2022-09-01T07:34:39.702Z,2.72
2022-09-01T07:43:33.775Z,1.65
2022-09-01T07:46:41.021Z,3.80
2022-09-01T07:49:51.336Z,3.10
2022-09-01T07:52:05.970Z,2.17
2022-09-01T07:54:37.460Z,1.50
2022-09-01T07:57:05.789Z,1.50
2022-09-01T07:59:36.184Z,1.73
2022-09-01T08:02:11.644Z,1.67
2022-09-01T08:04:40.159Z,1.45
2022-09-01T08:07:15.416Z,1.43
2022-09-01T08:09:44.445Z,1.33
2022-09-01T08:12:13.663Z,3.80
2022-09-01T08:14:47.531Z,66.38
2022-09-01T08:17:17.694Z,47.50
2022-09-01T08:20:09.816Z,15.33
2022-09-01T08:23:05.281Z,9.83
2022-09-01T08:25:40.034Z,12.60
2022-09-01T08:28:08.134Z,19.30
2022-09-01T08:30:38.143Z,47.72
2022-09-01T08:33:13.451Z,12.15
2022-09-01T08:35:48.002Z,18.65
2022-09-01T08:38:16.802Z,26.98
2022-09-01T08:40:56.264Z,24.45
2022-09-01T08:44:00.321Z,10.20
2022-09-01T08:46:35.152Z,1.45
2022-09-01T08:49:26.595Z,14.90
2022-09-01T08:52:29.647Z,3.65
2022-09-01T08:55:05.753Z,2.45
2022-09-01T08:57:36.930Z,103.30
2022-09-01T09:00:33.349Z,33.15
2022-09-01T09:03:08.803Z,34.95
2022-09-01T09:05:49.094Z,24.27
2022-09-01T09:08:32.941Z,39.13
2022-09-01T09:11:23.147Z,60.33
2022-09-01T09:14:04.471Z,24.85
2022-09-01T09:16:43.164Z,4.95
2022-09-01T09:19:18.754Z,1.50
2022-09-01T09:21:49.126Z,0.90
2022-09-01T09:24:47.386Z,27.58
2022-09-01T09:27:23.139Z,32.63
2022-09-01T09:29:53.711Z,61.47
2022-09-01T09:32:35.244Z,22.85
2022-09-01T09:35:30.536Z,10.20
2022-09-01T09:38:28.664Z,4.75
2022-09-01T09:43:59.224Z,1.00
2022-09-01T09:46:32.801Z,1.10
2022-09-01T09:49:35.244Z,0.80
2022-09-01T09:52:10.359Z,1.25
2022-09-01T09:54:57.395Z,1.00
2022-09-01T09:57:25.436Z,0.80
2022-09-01T10:00:00.387Z,0.82
2022-09-01T10:02:37.912Z,0.80
2022-09-01T10:05:25.009Z,1.75
2022-09-01T10:07:54.282Z,1.45
2022-09-01T10:10:38.920Z,1.38
2022-09-01T10:13:13.860Z,0.60
2022-09-01T10:15:50.974Z,0.70
2022-09-01T10:18:28.814Z,0.60
2022-09-01T10:21:26.658Z,0.50
2022-09-01T10:23:54.698Z,0.50
2022-09-01T10:26:35.691Z,0.40
2022-09-01T10:29:15.876Z,0.40
2022-09-01T10:31:43.648Z,0.55
2022-09-01T10:34:19.876Z,0.55
2022-09-01T10:36:55.022Z,0.60
2022-09-01T10:39:27.616Z,0.63
2022-09-01T10:42:07.421Z,6.00
2022-09-01T10:44:38.962Z,1.83
2022-09-01T10:47:25.249Z,0.43
2022-09-01T10:49:53.507Z,0.50
2022-09-01T10:52:43.456Z,0.73
2022-09-01T10:55:24.232Z,0.70
2022-09-01T10:59:30.825Z,1.73
2022-09-01T11:01:40.496Z,0.90
2022-09-01T11:03:56.399Z,0.77
2022-09-01T11:06:42.878Z,0.90
2022-09-01T11:09:30.169Z,0.57
2022-09-01T11:11:58.084Z,0.77
2022-09-01T11:14:27.226Z,0.82
2022-09-01T11:17:16.527Z,0.50
2022-09-01T11:20:07.431Z,0.50
2022-09-01T11:22:41.593Z,14.63
2022-09-01T11:25:12.576Z,155.27
2022-09-01T11:28:04.701Z,34.90
2022-09-01T11:30:51.986Z,14.45
2022-09-01T11:33:34.432Z,1.15
2022-09-01T11:36:06.106Z,1.30
2022-09-01T11:38:49.081Z,1.00
2022-09-01T11:41:33.965Z,3.10
2022-09-01T11:44:11.768Z,1.17
2022-09-01T11:46:43.068Z,0.90
2022-09-01T11:49:28.285Z,0.60
2022-09-01T11:51:57.230Z,0.50
2022-09-01T11:54:25.400Z,0.70
2022-09-01T11:56:53.002Z,0.60
2022-09-01T11:59:36.817Z,0.80
2022-09-01T12:02:04.506Z,0.60
2022-09-01T12:04:36.729Z,0.60
2022-09-01T12:07:13.329Z,0.60
2022-09-01T12:09:48.097Z,0.68
2022-09-01T12:12:36.009Z,0.80
2022-09-01T12:15:07.236Z,0.50
2022-09-01T12:17:36.082Z,0.60
2022-09-01T12:20:25.541Z,0.55
2022-09-01T12:22:59.017Z,0.60
2022-09-01T12:25:33.105Z,0.50
2022-09-01T12:28:02.755Z,0.52
2022-09-01T12:30:35.466Z,0.90
2022-09-01T12:33:25.071Z,0.63
2022-09-01T12:36:12.074Z,2.47
2022-09-01T12:38:39.767Z,0.77
2022-09-01T12:41:41.628Z,0.70
2022-09-01T12:44:30.285Z,0.70
2022-09-01T12:47:26.927Z,1.00
2022-09-01T12:49:55.675Z,0.82
2022-09-01T12:52:26.858Z,0.70
2022-09-01T12:55:00.249Z,0.60
2022-09-01T12:57:32.804Z,0.40
2022-09-01T13:00:15.564Z,0.70
2022-09-01T13:02:46.635Z,0.75
2022-09-01T13:05:47.195Z,0.63
2022-09-01T13:08:19.851Z,0.68
2022-09-01T13:10:51.745Z,0.50
2022-09-01T13:13:20.738Z,0.50
2022-09-01T13:15:51.855Z,0.77
2022-09-01T13:18:22.710Z,0.35
2022-09-01T13:20:53.006Z,0.63
2022-09-01T13:23:22.444Z,0.45
2022-09-01T13:25:51.656Z,0.55
2022-09-01T13:34:10.647Z,1.42
2022-09-01T13:36:47.449Z,1.35
2022-09-01T13:39:18.655Z,67.77
2022-09-01T13:41:47.440Z,3.35
2022-09-01T13:44:17.360Z,18.50
2022-09-01T13:50:04.552Z,186.25
2022-09-01T13:52:23.743Z,258.83
2022-09-01T13:54:51.847Z,374.23
2022-09-01T13:57:19.813Z,300.10
2022-09-01T13:59:47.844Z,243.82
2022-09-01T14:02:16.473Z,204.35
2022-09-01T14:04:45.180Z,142.15
2022-09-01T14:07:12.876Z,26.67
2022-09-01T14:09:41.339Z,127.57
2022-09-01T14:12:09.490Z,39.27
2022-09-01T14:17:25.009Z,117.68
2022-09-01T14:19:53.549Z,27.65
2022-09-01T14:22:21.970Z,50.70
2022-09-01T14:24:50.626Z,74.72
2022-09-01T14:27:18.643Z,22.85
2022-09-01T14:29:51.212Z,1.10
2022-09-01T14:32:27.040Z,2.40
2022-09-01T14:34:56.707Z,25.92
2022-09-01T14:37:25.844Z,11.23
2022-09-01T14:39:55.949Z,103.17
2022-09-01T14:42:25.788Z,101.10
2022-09-01T14:44:53.777Z,124.72
2022-09-01T14:47:25.144Z,41.60
2022-09-01T14:49:53.876Z,38.20
2022-09-01T14:52:22.264Z,23.45
2022-09-01T14:54:50.457Z,25.73
2022-09-01T14:57:37.838Z,3.00
2022-09-01T15:00:10.640Z,3.70
2022-09-01T15:02:41.272Z,1.43
2022-09-01T15:05:10.326Z,1.00
2022-09-01T15:07:38.848Z,1.50
2022-09-01T15:10:09.306Z,1.23
2022-09-01T15:12:39.794Z,9.85
2022-09-01T15:15:09.404Z,3.78
2022-09-01T15:17:38.141Z,0.85
2022-09-01T15:20:24.976Z,12.43
2022-09-01T15:22:53.642Z,56.37
2022-09-01T15:25:21.840Z,275.27
2022-09-01T15:27:50.064Z,231.23
2022-09-01T15:30:19.726Z,23.10
2022-09-01T15:32:50.564Z,5.78
2022-09-01T15:35:20.220Z,6.95
2022-09-01T15:37:49.965Z,0.95
2022-09-01T15:40:19.889Z,1.23
2022-09-01T15:42:47.563Z,0.90
2022-09-01T15:45:20.152Z,1.23
2022-09-01T15:47:51.044Z,1.02
2022-09-01T15:50:22.997Z,0.93
2022-09-01T15:52:59.838Z,1.17
2022-09-01T15:55:30.945Z,0.90
2022-09-01T15:57:59.388Z,1.00
2022-09-01T16:00:29.453Z,1.02
2022-09-01T16:03:01.903Z,4.03
2022-09-01T16:05:31.340Z,3.05
2022-09-01T16:08:01.583Z,7.95
2022-09-01T16:10:33.538Z,44.60
2022-09-01T16:13:05.107Z,155.93
2022-09-01T16:15:33.240Z,76.82
2022-09-01T16:18:01.029Z,356.20
2022-09-01T16:20:38.813Z,91.20
2022-09-01T16:23:20.148Z,53.53
2022-09-01T16:25:49.242Z,28.52
2022-09-01T16:28:30.985Z,95.38
2022-09-01T16:31:12.184Z,71.30
2022-09-01T16:33:43.053Z,127.78
2022-09-01T16:36:37.394Z,170.82
2022-09-01T16:39:24.159Z,140.27
2022-09-01T16:42:22.023Z,83.18
2022-09-01T16:45:02.023Z,46.80
2022-09-01T16:47:52.686Z,34.00
2022-09-01T16:50:32.638Z,38.63
2022-09-01T16:53:15.248Z,91.60
2022-09-01T16:56:09.837Z,118.57
2022-09-01T16:58:56.455Z,360.83
2022-09-01T17:01:47.939Z,511.83
2022-09-01T17:04:40.637Z,339.57
2022-09-01T17:07:28.091Z,381.02
2022-09-01T17:10:21.408Z,750.80
2022-09-01T17:12:56.207Z,737.08
2022-09-01T17:15:31.656Z,535.50
2022-09-01T17:18:22.573Z,600.65
2022-09-01T17:21:02.220Z,611.42
2022-09-01T17:23:38.205Z,512.05
2022-09-01T17:26:29.524Z,630.47
2022-09-01T17:29:15.060Z,598.30
2022-09-01T17:32:04.347Z,636.15
2022-09-01T17:34:48.461Z,642.40
2022-09-01T17:37:41.968Z,643.03
2022-09-01T17:40:17.225Z,668.33
2022-09-01T17:43:12.223Z,277.98
2022-09-01T17:45:54.236Z,489.55
2022-09-01T17:48:34.016Z,630.83
2022-09-01T17:51:25.822Z,613.10
2022-09-01T17:54:11.123Z,608.57
2022-09-01T17:56:57.417Z,572.15
2022-09-01T17:59:49.727Z,402.55
2022-09-01T18:02:36.591Z,490.40
2022-09-01T18:05:14.696Z,533.03
2022-09-01T18:08:07.745Z,173.67
2022-09-01T18:10:44.191Z,213.27
2022-09-01T18:13:51.972Z,209.45
2022-09-01T18:16:20.699Z,195.07
2022-09-01T18:18:51.163Z,226.38
2022-09-01T18:21:26.523Z,237.45
2022-09-01T18:24:32.964Z,270.97
2022-09-01T18:27:01.860Z,268.17
2022-09-01T18:29:31.600Z,192.82
2022-09-01T18:32:22.841Z,327.57
2022-09-01T18:35:16.304Z,299.77
2022-09-01T18:38:09.638Z,393.92
2022-09-01T18:40:48.668Z,340.83
2022-09-01T18:43:19.166Z,391.38
2022-09-01T18:46:09.798Z,576.42
2022-09-01T18:48:59.992Z,523.92
2022-09-01T18:51:41.099Z,516.08
2022-09-01T18:54:32.311Z,525.70
2022-09-01T18:57:05.486Z,507.40
2022-09-01T18:59:49.934Z,505.75
2022-09-01T19:02:21.298Z,534.65
2022-09-01T19:04:57.528Z,547.13
2022-09-01T19:07:31.409Z,504.48
2022-09-01T19:10:02.735Z,506.52
2022-09-01T19:12:36.320Z,481.88
2022-09-01T19:15:16.868Z,476.02
2022-09-01T19:17:50.621Z,523.67
2022-09-01T19:21:03.065Z,568.35
2022-09-01T19:23:50.552Z,527.53
2022-09-01T19:26:23.214Z,494.52
2022-09-01T19:28:54.090Z,432.67
2022-09-01T19:31:32.524Z,512.15
2022-09-01T19:34:07.340Z,570.23
2022-09-01T19:36:46.110Z,591.63
2022-09-01T19:39:38.516Z,514.10
2022-09-01T19:42:16.227Z,599.20
2022-09-01T19:44:59.151Z,496.08
2022-09-01T19:47:49.765Z,510.98
2022-09-01T19:50:24.395Z,206.40
2022-09-01T19:53:00.745Z,341.63
2022-09-01T19:55:51.403Z,175.98
2022-09-01T19:58:24.607Z,169.68
2022-09-01T20:01:02.512Z,160.70
2022-09-01T20:03:37.820Z,152.50
2022-09-01T20:06:47.231Z,124.68
2022-09-01T20:09:31.317Z,121.30
2022-09-01T20:12:28.348Z,161.13
2022-09-01T20:15:21.380Z,189.35
2022-09-01T20:17:57.813Z,277.55
2022-09-01T20:20:32.704Z,317.75
2022-09-01T20:23:16.618Z,390.05
2022-09-01T20:25:54.296Z,351.92
2022-09-01T20:28:41.291Z,312.58
2022-09-01T20:31:17.311Z,222.15
2022-09-01T20:33:58.684Z,259.13
2022-09-01T20:36:44.104Z,336.88
2022-09-01T20:39:37.152Z,283.30
2022-09-01T20:42:12.848Z,179.00
2022-09-01T20:44:52.963Z,222.65
2022-09-01T20:47:27.315Z,249.07
2022-09-01T20:50:02.298Z,358.40
2022-09-01T20:53:02.350Z,176.02
2022-09-01T20:55:50.213Z,158.80
2022-09-01T20:58:28.635Z,168.68
2022-09-01T21:01:28.689Z,203.40
2022-09-01T21:04:16.420Z,216.83
2022-09-01T21:06:48.526Z,344.33
2022-09-01T21:09:37.437Z,230.60
2022-09-01T21:12:34.983Z,280.52
2022-09-01T21:15:32.867Z,228.40
2022-09-01T21:18:20.311Z,136.05
2022-09-01T21:20:51.601Z,186.87
2022-09-01T21:23:21.151Z,232.75
2022-09-01T21:25:50.227Z,209.93
2022-09-01T21:28:20.545Z,162.52
2022-09-01T21:30:55.171Z,148.95
2022-09-01T21:33:25.372Z,156.05
2022-09-01T21:35:53.471Z,309.85
2022-09-01T21:38:21.214Z,440.58
2022-09-01T21:40:50.650Z,400.60
2022-09-01T21:43:22.614Z,420.95
2022-09-01T21:45:51.044Z,419.77
2022-09-01T21:48:19.120Z,300.73
2022-09-01T21:50:47.010Z,132.00
2022-09-01T21:53:15.271Z,148.88
2022-09-01T21:55:43.301Z,334.67
2022-09-01T21:58:11.354Z,335.63
2022-09-01T22:00:40.408Z,416.53
2022-09-01T22:03:09.836Z,433.67
2022-09-01T22:05:43.352Z,454.60
2022-09-01T22:08:14.261Z,426.20
2022-09-01T22:10:49.666Z,458.57
2022-09-01T22:13:19.420Z,486.75
2022-09-01T22:15:50.476Z,488.50
2022-09-01T22:18:20.674Z,488.50
2022-09-01T22:20:49.161Z,498.38
2022-09-01T22:23:17.946Z,498.73
2022-09-01T22:25:47.679Z,508.60
2022-09-01T22:28:15.797Z,496.98
2022-09-01T22:30:47.696Z,510.27
2022-09-01T22:33:16.466Z,503.27
2022-09-01T22:35:46.603Z,501.88
2022-09-01T22:38:15.949Z,491.75
2022-09-01T22:40:51.252Z,523.83
2022-09-01T22:43:19.921Z,515.55
2022-09-01T22:45:50.302Z,529.67
2022-09-01T22:48:22.118Z,540.08
2022-09-01T22:50:50.897Z,530.63
2022-09-01T22:53:20.677Z,525.08
2022-09-01T22:55:53.050Z,550.22
2022-09-01T22:58:21.437Z,557.85
2022-09-01T23:00:52.205Z,546.95
2022-09-01T23:03:21.310Z,547.23
2022-09-01T23:05:50.472Z,547.70
2022-09-01T23:08:19.162Z,544.90
2022-09-01T23:10:48.187Z,544.25
2022-09-01T23:13:15.893Z,552.42
2022-09-01T23:15:43.521Z,544.17
2022-09-01T23:18:11.708Z,538.33
2022-09-01T23:20:39.232Z,554.38
2022-09-01T23:23:07.231Z,551.75
2022-09-01T23:25:34.757Z,550.55
2022-09-01T23:28:02.588Z,541.83
2022-09-01T23:30:30.931Z,548.92
2022-09-01T23:32:58.452Z,550.72
2022-09-01T23:35:26.912Z,546.97
2022-09-01T23:37:55.219Z,561.92
2022-09-01T23:40:23.140Z,560.72
2022-09-01T23:42:50.747Z,541.83
2022-09-01T23:45:18.968Z,560.72
2022-09-01T23:47:47.184Z,547.33
2022-09-01T23:50:14.778Z,555.58
2022-09-01T23:52:42.377Z,560.03
2022-09-01T23:55:10.101Z,547.50
2022-09-01T23:57:37.748Z,541.53
